sensor_id;sensor_type;location;lat;lon;timestamp;P1;P2;P0
65574;PMS5003;73096;55.050;73.422;2024-02-21T00:01:54;5.33;4.00;2.00
65574;PMS5003;73096;55.050;73.422;2024-02-21T00:04:57;5.00;4.00;3.00
65574;PMS5003;73096;55.050;73.422;2024-02-21T00:08:02;5.00;4.00;2.00
65574;PMS5003;73096;55.050;73.422;2024-02-21T00:11:05;6.00;4.33;2.00
65574;PMS5003;73096;55.050;73.422;2024-02-21T00:14:07;4.00;3.67;2.00
65574;PMS5003;73096;55.050;73.422;2024-02-21T00:17:09;7.00;6.00;3.00
65574;PMS5003;73096;55.050;73.422;2024-02-21T00:20:12;11.00;8.00;3.00
65574;PMS5003;73096;55.050;73.422;2024-02-21T00:23:14;11.00;7.25;3.00
65574;PMS5003;73096;55.050;73.422;2024-02-21T00:26:16;9.33;7.00;4.00
65574;PMS5003;73096;55.050;73.422;2024-02-21T00:29:19;10.00;6.75;3.00
65574;PMS5003;73096;55.050;73.422;2024-02-21T00:32:22;7.25;6.00;3.00
65574;PMS5003;73096;55.050;73.422;2024-02-21T00:35:24;5.00;5.00;2.00
65574;PMS5003;73096;55.050;73.422;2024-02-21T00:38:27;6.50;6.25;3.00
65574;PMS5003;73096;55.050;73.422;2024-02-21T00:41:30;13.00;10.25;6.00
65574;PMS5003;73096;55.050;73.422;2024-02-21T00:44:34;11.00;10.00;4.00
65574;PMS5003;73096;55.050;73.422;2024-02-21T00:47:36;9.00;9.00;4.00
65574;PMS5003;73096;55.050;73.422;2024-02-21T00:50:39;8.67;8.00;2.33
65574;PMS5003;73096;55.050;73.422;2024-02-21T00:53:42;10.00;7.00;3.75
65574;PMS5003;73096;55.050;73.422;2024-02-21T00:56:44;10.00;8.00;4.00
65574;PMS5003;73096;55.050;73.422;2024-02-21T00:59:48;13.00;10.00;5.00
65574;PMS5003;73096;55.050;73.422;2024-02-21T01:02:50;13.00;12.00;4.00
65574;PMS5003;73096;55.050;73.422;2024-02-21T01:05:53;12.25;11.50;4.00
65574;PMS5003;73096;55.050;73.422;2024-02-21T01:08:56;11.50;10.00;4.00
65574;PMS5003;73096;55.050;73.422;2024-02-21T01:11:59;14.75;12.00;6.00
65574;PMS5003;73096;55.050;73.422;2024-02-21T01:15:03;13.00;11.00;4.00
65574;PMS5003;73096;55.050;73.422;2024-02-21T01:18:06;12.33;12.00;6.00
65574;PMS5003;73096;55.050;73.422;2024-02-21T01:21:09;14.50;13.00;6.50
65574;PMS5003;73096;55.050;73.422;2024-02-21T01:24:13;12.00;12.00;6.50
65574;PMS5003;73096;55.050;73.422;2024-02-21T01:27:17;12.00;12.00;6.00
65574;PMS5003;73096;55.050;73.422;2024-02-21T01:30:21;10.50;10.00;4.25
65574;PMS5003;73096;55.050;73.422;2024-02-21T01:33:25;10.00;10.00;6.00
65574;PMS5003;73096;55.050;73.422;2024-02-21T01:36:29;12.00;10.00;5.50
65574;PMS5003;73096;55.050;73.422;2024-02-21T01:39:31;9.00;8.25;4.00
65574;PMS5003;73096;55.050;73.422;2024-02-21T01:42:37;12.00;10.00;4.00
65574;PMS5003;73096;55.050;73.422;2024-02-21T01:45:41;11.67;10.00;4.33
65574;PMS5003;73096;55.050;73.422;2024-02-21T01:48:45;12.00;10.00;5.50
65574;PMS5003;73096;55.050;73.422;2024-02-21T01:51:48;13.00;12.00;6.25
65574;PMS5003;73096;55.050;73.422;2024-02-21T01:54:51;12.00;10.00;4.00
65574;PMS5003;73096;55.050;73.422;2024-02-21T01:57:54;10.00;9.00;3.67
65574;PMS5003;73096;55.050;73.422;2024-02-21T02:00:56;11.00;10.00;4.25
65574;PMS5003;73096;55.050;73.422;2024-02-21T02:03:59;10.00;8.00;4.00
65574;PMS5003;73096;55.050;73.422;2024-02-21T02:07:02;9.00;8.67;3.00
65574;PMS5003;73096;55.050;73.422;2024-02-21T02:10:06;10.50;10.50;4.00
65574;PMS5003;73096;55.050;73.422;2024-02-21T02:13:10;11.25;11.00;4.50
65574;PMS5003;73096;55.050;73.422;2024-02-21T02:16:13;10.75;10.00;5.00
65574;PMS5003;73096;55.050;73.422;2024-02-21T02:19:17;13.00;11.25;5.00
65574;PMS5003;73096;55.050;73.422;2024-02-21T02:22:22;11.25;10.00;5.00
65574;PMS5003;73096;55.050;73.422;2024-02-21T02:25:24;12.67;11.00;4.67
65574;PMS5003;73096;55.050;73.422;2024-02-21T02:28:28;15.50;14.50;8.50
65574;PMS5003;73096;55.050;73.422;2024-02-21T02:31:32;17.75;16.00;9.00
65574;PMS5003;73096;55.050;73.422;2024-02-21T02:34:36;16.25;14.25;9.50
65574;PMS5003;73096;55.050;73.422;2024-02-21T02:37:39;22.50;19.00;11.75
65574;PMS5003;73096;55.050;73.422;2024-02-21T02:40:42;23.00;19.00;13.00
65574;PMS5003;73096;55.050;73.422;2024-02-21T02:43:45;20.00;17.00;11.00
65574;PMS5003;73096;55.050;73.422;2024-02-21T02:46:48;15.00;13.00;10.00
65574;PMS5003;73096;55.050;73.422;2024-02-21T02:49:51;15.67;13.33;8.00
65574;PMS5003;73096;55.050;73.422;2024-02-21T02:52:54;12.00;11.25;8.00
65574;PMS5003;73096;55.050;73.422;2024-02-21T02:55:57;16.00;14.50;10.00
65574;PMS5003;73096;55.050;73.422;2024-02-21T02:59:01;17.00;15.33;11.00
65574;PMS5003;73096;55.050;73.422;2024-02-21T03:02:03;16.00;14.25;9.50
65574;PMS5003;73096;55.050;73.422;2024-02-21T03:05:13;19.00;16.00;11.00
65574;PMS5003;73096;55.050;73.422;2024-02-21T03:08:18;20.00;17.00;11.00
65574;PMS5003;73096;55.050;73.422;2024-02-21T03:11:20;17.00;14.00;8.00
65574;PMS5003;73096;55.050;73.422;2024-02-21T03:14:24;17.75;16.75;10.00
65574;PMS5003;73096;55.050;73.422;2024-02-21T03:17:26;17.25;17.25;11.25
65574;PMS5003;73096;55.050;73.422;2024-02-21T03:20:29;20.00;19.00;11.67
65574;PMS5003;73096;55.050;73.422;2024-02-21T03:23:32;21.00;18.50;12.00
65574;PMS5003;73096;55.050;73.422;2024-02-21T03:26:34;22.00;19.00;12.00
65574;PMS5003;73096;55.050;73.422;2024-02-21T03:29:36;22.00;19.00;12.50
65574;PMS5003;73096;55.050;73.422;2024-02-21T03:32:39;22.00;19.00;12.00
65574;PMS5003;73096;55.050;73.422;2024-02-21T03:35:42;21.00;19.00;11.00
65574;PMS5003;73096;55.050;73.422;2024-02-21T03:38:44;20.00;18.00;11.00
65574;PMS5003;73096;55.050;73.422;2024-02-21T03:41:47;21.00;18.00;12.00
65574;PMS5003;73096;55.050;73.422;2024-02-21T03:44:50;23.67;19.00;13.00
65574;PMS5003;73096;55.050;73.422;2024-02-21T03:47:54;22.00;19.00;13.00
65574;PMS5003;73096;55.050;73.422;2024-02-21T03:50:56;23.33;20.33;13.00
65574;PMS5003;73096;55.050;73.422;2024-02-21T03:54:00;23.00;19.00;12.67
65574;PMS5003;73096;55.050;73.422;2024-02-21T03:57:04;21.50;19.00;12.00
65574;PMS5003;73096;55.050;73.422;2024-02-21T04:00:08;22.00;19.00;12.00
65574;PMS5003;73096;55.050;73.422;2024-02-21T04:03:14;24.00;19.00;12.00
65574;PMS5003;73096;55.050;73.422;2024-02-21T04:06:16;23.00;19.00;12.00
65574;PMS5003;73096;55.050;73.422;2024-02-21T04:09:19;22.00;20.00;12.00
65574;PMS5003;73096;55.050;73.422;2024-02-21T04:12:23;20.00;19.00;12.00
65574;PMS5003;73096;55.050;73.422;2024-02-21T04:15:26;17.00;15.25;11.00
65574;PMS5003;73096;55.050;73.422;2024-02-21T04:18:28;17.50;15.00;9.50
65574;PMS5003;73096;55.050;73.422;2024-02-21T04:21:31;18.00;16.00;11.25
65574;PMS5003;73096;55.050;73.422;2024-02-21T04:24:34;17.33;16.33;11.00
65574;PMS5003;73096;55.050;73.422;2024-02-21T04:27:37;17.00;16.50;11.00
65574;PMS5003;73096;55.050;73.422;2024-02-21T04:30:40;16.25;15.00;10.00
65574;PMS5003;73096;55.050;73.422;2024-02-21T04:33:43;17.00;17.00;11.00
65574;PMS5003;73096;55.050;73.422;2024-02-21T04:36:45;19.00;18.00;10.25
65574;PMS5003;73096;55.050;73.422;2024-02-21T04:39:48;17.50;17.00;11.00
65574;PMS5003;73096;55.050;73.422;2024-02-21T04:42:50;23.00;19.00;12.00
65574;PMS5003;73096;55.050;73.422;2024-02-21T04:45:53;19.25;17.00;10.50
65574;PMS5003;73096;55.050;73.422;2024-02-21T04:48:57;19.25;16.25;11.00
65574;PMS5003;73096;55.050;73.422;2024-02-21T04:51:59;18.00;16.00;10.00
65574;PMS5003;73096;55.050;73.422;2024-02-21T04:55:01;19.00;17.00;11.75
65574;PMS5003;73096;55.050;73.422;2024-02-21T04:58:05;20.00;16.50;11.00
65574;PMS5003;73096;55.050;73.422;2024-02-21T05:01:07;31.25;25.00;16.00
65574;PMS5003;73096;55.050;73.422;2024-02-21T05:04:09;36.00;28.00;17.00
65574;PMS5003;73096;55.050;73.422;2024-02-21T05:07:13;34.00;25.00;17.00
65574;PMS5003;73096;55.050;73.422;2024-02-21T05:10:15;29.00;23.33;15.00
65574;PMS5003;73096;55.050;73.422;2024-02-21T05:13:20;25.00;21.00;13.00
65574;PMS5003;73096;55.050;73.422;2024-02-21T05:16:23;20.50;16.00;11.00
65574;PMS5003;73096;55.050;73.422;2024-02-21T05:19:26;17.00;16.00;8.00
65574;PMS5003;73096;55.050;73.422;2024-02-21T05:22:30;14.00;14.00;6.00
65574;PMS5003;73096;55.050;73.422;2024-02-21T05:25:34;13.25;12.00;5.00
65574;PMS5003;73096;55.050;73.422;2024-02-21T05:28:37;12.50;11.25;4.00
65574;PMS5003;73096;55.050;73.422;2024-02-21T05:34:56;11.50;10.50;3.50
65574;PMS5003;73096;55.050;73.422;2024-02-21T05:38:01;9.50;9.50;3.00
65574;PMS5003;73096;55.050;73.422;2024-02-21T05:41:07;8.50;7.00;3.00
65574;PMS5003;73096;55.050;73.422;2024-02-21T05:44:10;8.00;7.50;4.00
65574;PMS5003;73096;55.050;73.422;2024-02-21T05:47:12;8.00;7.00;3.00
65574;PMS5003;73096;55.050;73.422;2024-02-21T05:50:17;6.00;6.00;2.00
65574;PMS5003;73096;55.050;73.422;2024-02-21T05:53:19;6.00;6.00;1.00
65574;PMS5003;73096;55.050;73.422;2024-02-21T05:56:21;4.00;4.00;1.00
65574;PMS5003;73096;55.050;73.422;2024-02-21T05:59:24;4.00;4.00;2.00
65574;PMS5003;73096;55.050;73.422;2024-02-21T06:02:27;5.00;5.00;1.75
65574;PMS5003;73096;55.050;73.422;2024-02-21T06:05:30;5.75;5.75;3.50
65574;PMS5003;73096;55.050;73.422;2024-02-21T06:08:33;4.00;4.00;1.00
65574;PMS5003;73096;55.050;73.422;2024-02-21T06:11:36;4.00;4.00;1.00
65574;PMS5003;73096;55.050;73.422;2024-02-21T06:14:39;6.00;4.67;1.33
65574;PMS5003;73096;55.050;73.422;2024-02-21T06:17:42;8.00;7.00;3.00
65574;PMS5003;73096;55.050;73.422;2024-02-21T06:20:45;8.00;6.00;3.00
65574;PMS5003;73096;55.050;73.422;2024-02-21T06:23:48;6.50;4.00;1.00
65574;PMS5003;73096;55.050;73.422;2024-02-21T06:26:50;4.00;3.50;1.00
65574;PMS5003;73096;55.050;73.422;2024-02-21T06:29:52;2.67;2.00;0.00
65574;PMS5003;73096;55.050;73.422;2024-02-21T06:32:54;4.00;3.00;1.50
65574;PMS5003;73096;55.050;73.422;2024-02-21T06:35:59;3.00;3.00;1.00
65574;PMS5003;73096;55.050;73.422;2024-02-21T06:39:01;2.75;2.50;0.75
65574;PMS5003;73096;55.050;73.422;2024-02-21T06:42:06;3.00;3.00;1.00
65574;PMS5003;73096;55.050;73.422;2024-02-21T06:45:09;3.00;3.00;0.00
65574;PMS5003;73096;55.050;73.422;2024-02-21T06:48:12;4.00;3.00;1.00
65574;PMS5003;73096;55.050;73.422;2024-02-21T06:51:15;3.00;3.00;1.00
65574;PMS5003;73096;55.050;73.422;2024-02-21T06:54:18;2.00;2.00;1.00
65574;PMS5003;73096;55.050;73.422;2024-02-21T06:57:21;3.00;3.00;1.00
65574;PMS5003;73096;55.050;73.422;2024-02-21T07:00:23;2.00;2.00;0.00
65574;PMS5003;73096;55.050;73.422;2024-02-21T07:03:26;2.00;1.00;0.00
65574;PMS5003;73096;55.050;73.422;2024-02-21T07:06:29;2.33;1.00;0.00
65574;PMS5003;73096;55.050;73.422;2024-02-21T07:09:32;3.67;3.00;0.00
65574;PMS5003;73096;55.050;73.422;2024-02-21T07:12:54;4.00;3.00;0.00
65574;PMS5003;73096;55.050;73.422;2024-02-21T07:15:57;3.00;3.00;0.00
65574;PMS5003;73096;55.050;73.422;2024-02-21T07:18:59;3.25;3.00;0.00
65574;PMS5003;73096;55.050;73.422;2024-02-21T07:22:02;4.50;3.50;1.00
65574;PMS5003;73096;55.050;73.422;2024-02-21T07:25:04;5.75;4.25;1.00
65574;PMS5003;73096;55.050;73.422;2024-02-21T07:28:07;4.00;4.00;1.67
65574;PMS5003;73096;55.050;73.422;2024-02-21T07:31:09;4.50;4.00;2.00
65574;PMS5003;73096;55.050;73.422;2024-02-21T07:34:12;4.75;4.25;2.25
65574;PMS5003;73096;55.050;73.422;2024-02-21T07:37:36;10.00;8.25;3.00
65574;PMS5003;73096;55.050;73.422;2024-02-21T07:40:40;7.00;6.00;3.00
65574;PMS5003;73096;55.050;73.422;2024-02-21T07:43:42;6.00;5.00;2.00
65574;PMS5003;73096;55.050;73.422;2024-02-21T07:46:44;8.00;6.50;3.00
65574;PMS5003;73096;55.050;73.422;2024-02-21T07:49:47;8.00;7.67;3.00
65574;PMS5003;73096;55.050;73.422;2024-02-21T07:52:50;8.00;6.25;2.00
65574;PMS5003;73096;55.050;73.422;2024-02-21T07:55:53;5.75;5.00;1.00
65574;PMS5003;73096;55.050;73.422;2024-02-21T07:58:56;5.00;5.00;1.00
65574;PMS5003;73096;55.050;73.422;2024-02-21T08:01:59;6.00;5.00;1.00
65574;PMS5003;73096;55.050;73.422;2024-02-21T08:05:01;5.00;5.00;1.00
65574;PMS5003;73096;55.050;73.422;2024-02-21T08:08:04;5.00;5.00;2.00
65574;PMS5003;73096;55.050;73.422;2024-02-21T08:11:07;7.00;6.67;3.00
65574;PMS5003;73096;55.050;73.422;2024-02-21T08:14:10;7.00;5.00;3.00
65574;PMS5003;73096;55.050;73.422;2024-02-21T08:17:12;5.25;5.00;2.00
65574;PMS5003;73096;55.050;73.422;2024-02-21T08:20:15;5.33;5.33;1.00
65574;PMS5003;73096;55.050;73.422;2024-02-21T08:23:18;7.00;6.00;1.00
65574;PMS5003;73096;55.050;73.422;2024-02-21T08:26:20;7.00;7.00;2.00
65574;PMS5003;73096;55.050;73.422;2024-02-21T08:29:23;4.75;4.75;1.00
65574;PMS5003;73096;55.050;73.422;2024-02-21T08:32:25;6.00;5.00;2.00
65574;PMS5003;73096;55.050;73.422;2024-02-21T08:35:27;8.50;7.50;4.00
65574;PMS5003;73096;55.050;73.422;2024-02-21T08:38:31;9.50;9.25;4.00
65574;PMS5003;73096;55.050;73.422;2024-02-21T08:41:34;10.00;9.00;3.00
65574;PMS5003;73096;55.050;73.422;2024-02-21T08:44:37;11.00;8.00;3.00
65574;PMS5003;73096;55.050;73.422;2024-02-21T08:47:42;10.25;8.00;3.00
65574;PMS5003;73096;55.050;73.422;2024-02-21T08:50:46;12.00;9.00;3.00
65574;PMS5003;73096;55.050;73.422;2024-02-21T08:53:48;11.00;7.00;3.00
65574;PMS5003;73096;55.050;73.422;2024-02-21T08:56:50;7.00;5.00;3.00
65574;PMS5003;73096;55.050;73.422;2024-02-21T08:59:52;7.00;6.00;2.67
65574;PMS5003;73096;55.050;73.422;2024-02-21T09:02:55;5.00;4.00;2.00
65574;PMS5003;73096;55.050;73.422;2024-02-21T09:05:59;8.67;7.00;3.00
65574;PMS5003;73096;55.050;73.422;2024-02-21T09:09:02;10.00;6.00;3.00
65574;PMS5003;73096;55.050;73.422;2024-02-21T09:12:05;7.75;5.00;2.00
65574;PMS5003;73096;55.050;73.422;2024-02-21T09:15:08;9.00;7.00;3.75
65574;PMS5003;73096;55.050;73.422;2024-02-21T09:18:10;14.00;11.50;7.00
65574;PMS5003;73096;55.050;73.422;2024-02-21T09:21:14;17.00;13.00;5.00
65574;PMS5003;73096;55.050;73.422;2024-02-21T09:24:17;16.25;14.00;5.00
65574;PMS5003;73096;55.050;73.422;2024-02-21T09:27:20;15.00;13.00;5.00
65574;PMS5003;73096;55.050;73.422;2024-02-21T09:30:25;13.00;11.75;4.75
65574;PMS5003;73096;55.050;73.422;2024-02-21T09:33:27;15.00;13.00;5.00
65574;PMS5003;73096;55.050;73.422;2024-02-21T09:36:30;13.00;11.00;4.00
65574;PMS5003;73096;55.050;73.422;2024-02-21T09:39:34;15.00;12.00;5.00
65574;PMS5003;73096;55.050;73.422;2024-02-21T09:42:37;15.00;13.00;5.00
65574;PMS5003;73096;55.050;73.422;2024-02-21T09:45:45;14.75;11.00;5.00
65574;PMS5003;73096;55.050;73.422;2024-02-21T09:52:09;15.00;12.00;4.00
65574;PMS5003;73096;55.050;73.422;2024-02-21T09:55:15;14.00;11.00;4.00
65574;PMS5003;73096;55.050;73.422;2024-02-21T09:58:18;11.00;11.00;3.00
65574;PMS5003;73096;55.050;73.422;2024-02-21T10:01:20;13.00;11.00;3.00
65574;PMS5003;73096;55.050;73.422;2024-02-21T10:04:24;11.00;9.00;3.00
65574;PMS5003;73096;55.050;73.422;2024-02-21T10:07:27;12.00;11.00;5.00
65574;PMS5003;73096;55.050;73.422;2024-02-21T10:10:40;12.50;11.00;3.00
65574;PMS5003;73096;55.050;73.422;2024-02-21T10:13:43;12.25;10.50;4.25
65574;PMS5003;73096;55.050;73.422;2024-02-21T10:16:48;13.50;12.00;4.50
65574;PMS5003;73096;55.050;73.422;2024-02-21T10:19:52;13.00;11.75;3.00
65574;PMS5003;73096;55.050;73.422;2024-02-21T10:23:01;11.00;11.00;3.00
65574;PMS5003;73096;55.050;73.422;2024-02-21T10:26:07;11.00;10.00;3.00
65574;PMS5003;73096;55.050;73.422;2024-02-21T10:29:10;11.00;9.75;3.75
65574;PMS5003;73096;55.050;73.422;2024-02-21T10:32:13;11.00;8.00;3.00
65574;PMS5003;73096;55.050;73.422;2024-02-21T10:35:25;9.67;7.00;3.00
65574;PMS5003;73096;55.050;73.422;2024-02-21T10:38:28;9.00;5.00;3.00
65574;PMS5003;73096;55.050;73.422;2024-02-21T10:41:30;9.67;7.00;3.00
65574;PMS5003;73096;55.050;73.422;2024-02-21T10:44:34;9.25;5.50;2.25
65574;PMS5003;73096;55.050;73.422;2024-02-21T10:47:38;7.00;5.00;2.00
65574;PMS5003;73096;55.050;73.422;2024-02-21T10:50:57;7.00;7.00;2.00
65574;PMS5003;73096;55.050;73.422;2024-02-21T10:54:18;6.00;5.00;2.00
65574;PMS5003;73096;55.050;73.422;2024-02-21T10:57:23;6.50;4.75;1.00
65574;PMS5003;73096;55.050;73.422;2024-02-21T11:00:27;6.00;5.00;2.00
65574;PMS5003;73096;55.050;73.422;2024-02-21T11:03:32;7.00;6.00;3.00
65574;PMS5003;73096;55.050;73.422;2024-02-21T11:06:35;6.75;5.00;3.00
65574;PMS5003;73096;55.050;73.422;2024-02-21T11:09:38;6.67;5.00;2.33
65574;PMS5003;73096;55.050;73.422;2024-02-21T11:12:40;9.00;7.00;3.00
65574;PMS5003;73096;55.050;73.422;2024-02-21T11:15:43;10.00;7.00;3.00
65574;PMS5003;73096;55.050;73.422;2024-02-21T11:18:46;12.00;9.50;4.50
65574;PMS5003;73096;55.050;73.422;2024-02-21T11:21:49;14.00;12.00;5.00
65574;PMS5003;73096;55.050;73.422;2024-02-21T11:24:53;17.00;13.50;6.00
65574;PMS5003;73096;55.050;73.422;2024-02-21T11:28:02;15.00;14.00;5.00
65574;PMS5003;73096;55.050;73.422;2024-02-21T11:31:10;14.50;13.00;4.00
65574;PMS5003;73096;55.050;73.422;2024-02-21T11:34:17;13.00;12.00;5.00
65574;PMS5003;73096;55.050;73.422;2024-02-21T11:37:20;13.00;12.00;5.00
65574;PMS5003;73096;55.050;73.422;2024-02-21T11:40:24;15.00;11.00;5.00
65574;PMS5003;73096;55.050;73.422;2024-02-21T11:43:27;16.75;13.00;5.00
65574;PMS5003;73096;55.050;73.422;2024-02-21T11:46:29;16.00;13.00;6.67
65574;PMS5003;73096;55.050;73.422;2024-02-21T11:49:36;13.00;13.00;5.00
65574;PMS5003;73096;55.050;73.422;2024-02-21T11:52:39;13.25;13.00;5.00
65574;PMS5003;73096;55.050;73.422;2024-02-21T11:55:41;13.50;12.00;5.00
65574;PMS5003;73096;55.050;73.422;2024-02-21T11:58:45;13.00;11.00;4.00
65574;PMS5003;73096;55.050;73.422;2024-02-21T12:01:48;13.00;12.00;4.00
65574;PMS5003;73096;55.050;73.422;2024-02-21T12:04:52;13.00;11.75;4.75
65574;PMS5003;73096;55.050;73.422;2024-02-21T12:08:16;12.00;11.00;4.75
65574;PMS5003;73096;55.050;73.422;2024-02-21T12:11:22;12.25;12.00;5.00
65574;PMS5003;73096;55.050;73.422;2024-02-21T12:14:26;12.00;11.00;3.75
65574;PMS5003;73096;55.050;73.422;2024-02-21T12:17:29;12.00;12.00;4.00
65574;PMS5003;73096;55.050;73.422;2024-02-21T12:20:33;12.00;10.00;3.00
65574;PMS5003;73096;55.050;73.422;2024-02-21T12:23:39;10.00;8.25;3.75
65574;PMS5003;73096;55.050;73.422;2024-02-21T12:26:42;9.50;6.75;3.00
65574;PMS5003;73096;55.050;73.422;2024-02-21T12:29:45;12.00;10.00;3.00
65574;PMS5003;73096;55.050;73.422;2024-02-21T12:32:49;11.50;11.00;3.00
65574;PMS5003;73096;55.050;73.422;2024-02-21T12:35:52;10.75;9.50;3.00
65574;PMS5003;73096;55.050;73.422;2024-02-21T12:38:58;14.00;11.50;4.00
65574;PMS5003;73096;55.050;73.422;2024-02-21T12:42:19;11.00;10.00;3.75
65574;PMS5003;73096;55.050;73.422;2024-02-21T12:45:23;13.00;11.00;5.00
65574;PMS5003;73096;55.050;73.422;2024-02-21T12:48:25;12.00;9.00;4.00
65574;PMS5003;73096;55.050;73.422;2024-02-21T12:51:28;10.00;8.00;3.00
65574;PMS5003;73096;55.050;73.422;2024-02-21T12:54:30;8.00;6.00;2.00
65574;PMS5003;73096;55.050;73.422;2024-02-21T12:57:54;8.00;4.67;3.00
65574;PMS5003;73096;55.050;73.422;2024-02-21T13:01:00;5.00;4.00;2.00
65574;PMS5003;73096;55.050;73.422;2024-02-21T13:04:02;5.75;5.25;1.25
65574;PMS5003;73096;55.050;73.422;2024-02-21T13:07:05;6.00;6.00;3.33
65574;PMS5003;73096;55.050;73.422;2024-02-21T13:10:08;6.00;6.00;2.00
65574;PMS5003;73096;55.050;73.422;2024-02-21T13:13:12;7.00;6.75;3.00
65574;PMS5003;73096;55.050;73.422;2024-02-21T13:16:14;7.00;6.00;3.00
65574;PMS5003;73096;55.050;73.422;2024-02-21T13:19:36;9.50;8.50;4.00
65574;PMS5003;73096;55.050;73.422;2024-02-21T13:22:40;12.00;10.00;4.00
65574;PMS5003;73096;55.050;73.422;2024-02-21T13:25:43;11.00;9.00;4.00
65574;PMS5003;73096;55.050;73.422;2024-02-21T13:29:03;12.50;11.25;4.00
65574;PMS5003;73096;55.050;73.422;2024-02-21T13:32:26;12.00;11.00;5.00
65574;PMS5003;73096;55.050;73.422;2024-02-21T13:35:42;7.50;7.25;3.00
65574;PMS5003;73096;55.050;73.422;2024-02-21T13:38:55;7.00;6.00;3.00
65574;PMS5003;73096;55.050;73.422;2024-02-21T13:41:58;6.00;6.00;3.00
65574;PMS5003;73096;55.050;73.422;2024-02-21T13:45:00;8.00;6.00;2.75
65574;PMS5003;73096;55.050;73.422;2024-02-21T13:48:05;6.00;4.00;1.00
65574;PMS5003;73096;55.050;73.422;2024-02-21T13:51:08;5.00;5.00;3.00
65574;PMS5003;73096;55.050;73.422;2024-02-21T13:54:26;9.00;7.50;4.00
65574;PMS5003;73096;55.050;73.422;2024-02-21T13:57:29;9.00;9.00;4.00
65574;PMS5003;73096;55.050;73.422;2024-02-21T14:00:44;8.50;8.00;3.00
65574;PMS5003;73096;55.050;73.422;2024-02-21T14:04:04;9.00;7.25;2.25
65574;PMS5003;73096;55.050;73.422;2024-02-21T14:07:08;7.00;6.00;1.00
65574;PMS5003;73096;55.050;73.422;2024-02-21T14:10:11;6.00;4.00;1.25
65574;PMS5003;73096;55.050;73.422;2024-02-21T14:13:31;5.00;5.00;2.00
65574;PMS5003;73096;55.050;73.422;2024-02-21T14:16:34;5.50;4.00;3.00
65574;PMS5003;73096;55.050;73.422;2024-02-21T14:19:38;5.00;5.00;3.25
65574;PMS5003;73096;55.050;73.422;2024-02-21T14:22:41;6.00;5.00;3.00
65574;PMS5003;73096;55.050;73.422;2024-02-21T14:25:44;6.00;4.00;1.50
65574;PMS5003;73096;55.050;73.422;2024-02-21T14:28:46;7.00;4.00;1.67
65574;PMS5003;73096;55.050;73.422;2024-02-21T14:31:49;4.67;4.00;1.00
65574;PMS5003;73096;55.050;73.422;2024-02-21T14:34:51;5.00;4.00;1.00
65574;PMS5003;73096;55.050;73.422;2024-02-21T14:37:53;7.00;6.00;3.00
65574;PMS5003;73096;55.050;73.422;2024-02-21T14:40:59;7.00;6.00;3.75
65574;PMS5003;73096;55.050;73.422;2024-02-21T14:44:02;9.00;8.00;3.00
65574;PMS5003;73096;55.050;73.422;2024-02-21T14:47:05;8.50;6.50;2.00
65574;PMS5003;73096;55.050;73.422;2024-02-21T14:50:08;5.67;4.00;3.00
65574;PMS5003;73096;55.050;73.422;2024-02-21T14:53:10;5.00;5.00;2.00
65574;PMS5003;73096;55.050;73.422;2024-02-21T14:56:13;6.00;5.67;2.33
65574;PMS5003;73096;55.050;73.422;2024-02-21T14:59:23;5.00;4.00;2.00
65574;PMS5003;73096;55.050;73.422;2024-02-21T15:02:48;5.50;4.00;2.00
65574;PMS5003;73096;55.050;73.422;2024-02-21T15:05:50;4.00;4.00;2.50
65574;PMS5003;73096;55.050;73.422;2024-02-21T15:08:53;6.00;4.00;2.00
65574;PMS5003;73096;55.050;73.422;2024-02-21T15:11:56;6.00;4.33;1.67
65574;PMS5003;73096;55.050;73.422;2024-02-21T15:14:58;10.00;7.75;3.00
65574;PMS5003;73096;55.050;73.422;2024-02-21T15:18:01;7.00;7.00;3.00
65574;PMS5003;73096;55.050;73.422;2024-02-21T15:21:05;7.00;5.25;3.00
65574;PMS5003;73096;55.050;73.422;2024-02-21T15:24:07;7.00;5.00;3.00
65574;PMS5003;73096;55.050;73.422;2024-02-21T15:27:09;4.33;4.00;1.33
65574;PMS5003;73096;55.050;73.422;2024-02-21T15:30:13;4.00;3.00;1.50
65574;PMS5003;73096;55.050;73.422;2024-02-21T15:33:20;4.00;3.00;1.00
65574;PMS5003;73096;55.050;73.422;2024-02-21T15:36:22;6.00;5.50;3.00
65574;PMS5003;73096;55.050;73.422;2024-02-21T15:39:25;9.00;6.75;2.75
65574;PMS5003;73096;55.050;73.422;2024-02-21T15:42:30;8.00;6.00;3.00
65574;PMS5003;73096;55.050;73.422;2024-02-21T15:45:34;4.00;4.00;2.00
65574;PMS5003;73096;55.050;73.422;2024-02-21T15:48:37;6.00;5.00;1.00
65574;PMS5003;73096;55.050;73.422;2024-02-21T15:51:40;6.00;6.00;2.00
65574;PMS5003;73096;55.050;73.422;2024-02-21T15:54:43;6.00;5.00;1.00
65574;PMS5003;73096;55.050;73.422;2024-02-21T15:57:47;7.00;6.00;3.00
65574;PMS5003;73096;55.050;73.422;2024-02-21T16:00:50;5.00;4.00;2.00
65574;PMS5003;73096;55.050;73.422;2024-02-21T16:03:53;5.00;4.00;2.00
65574;PMS5003;73096;55.050;73.422;2024-02-21T16:07:01;5.00;5.00;1.25
65574;PMS5003;73096;55.050;73.422;2024-02-21T16:10:03;9.00;6.50;3.00
65574;PMS5003;73096;55.050;73.422;2024-02-21T16:13:06;9.00;7.00;4.00
65574;PMS5003;73096;55.050;73.422;2024-02-21T16:16:09;8.33;6.00;3.00
65574;PMS5003;73096;55.050;73.422;2024-02-21T16:19:12;7.00;6.00;2.67
65574;PMS5003;73096;55.050;73.422;2024-02-21T16:22:16;7.33;6.00;3.00
65574;PMS5003;73096;55.050;73.422;2024-02-21T16:25:18;7.00;6.00;2.00
65574;PMS5003;73096;55.050;73.422;2024-02-21T16:28:20;9.00;7.00;3.00
65574;PMS5003;73096;55.050;73.422;2024-02-21T16:31:22;9.00;8.75;4.00
65574;PMS5003;73096;55.050;73.422;2024-02-21T16:34:26;9.00;8.67;4.00
65574;PMS5003;73096;55.050;73.422;2024-02-21T16:37:29;10.00;9.00;4.33
65574;PMS5003;73096;55.050;73.422;2024-02-21T16:40:31;10.25;10.00;4.00
65574;PMS5003;73096;55.050;73.422;2024-02-21T16:43:35;11.25;10.50;4.00
65574;PMS5003;73096;55.050;73.422;2024-02-21T16:46:38;9.25;9.25;3.00
65574;PMS5003;73096;55.050;73.422;2024-02-21T16:49:40;7.00;6.50;3.00
65574;PMS5003;73096;55.050;73.422;2024-02-21T16:52:43;5.50;5.00;4.00
65574;PMS5003;73096;55.050;73.422;2024-02-21T16:55:47;6.00;5.00;3.00
65574;PMS5003;73096;55.050;73.422;2024-02-21T16:58:50;6.75;6.00;3.00
65574;PMS5003;73096;55.050;73.422;2024-02-21T17:01:53;9.00;7.00;3.00
65574;PMS5003;73096;55.050;73.422;2024-02-21T17:04:57;9.00;7.00;3.25
65574;PMS5003;73096;55.050;73.422;2024-02-21T17:07:59;7.00;6.00;3.00
65574;PMS5003;73096;55.050;73.422;2024-02-21T17:11:01;6.00;4.00;3.00
65574;PMS5003;73096;55.050;73.422;2024-02-21T17:14:04;7.00;5.75;3.00
65574;PMS5003;73096;55.050;73.422;2024-02-21T17:17:07;10.00;8.00;4.00
65574;PMS5003;73096;55.050;73.422;2024-02-21T17:20:18;8.00;7.25;3.00
65574;PMS5003;73096;55.050;73.422;2024-02-21T17:23:21;7.67;7.00;3.00
65574;PMS5003;73096;55.050;73.422;2024-02-21T17:26:24;11.00;8.75;3.00
65574;PMS5003;73096;55.050;73.422;2024-02-21T17:29:29;8.00;7.00;3.25
65574;PMS5003;73096;55.050;73.422;2024-02-21T17:32:32;9.00;8.25;4.00